createdAt,value
2022-09-12T00:00:53.522Z,48.20
2022-09-12T00:03:23.513Z,48.10
2022-09-12T00:05:53.504Z,48.20
2022-09-12T00:08:23.470Z,47.90
2022-09-12T00:10:54.087Z,47.90
2022-09-12T00:13:24.079Z,47.70
2022-09-12T00:15:54.223Z,47.90
2022-09-12T00:18:24.462Z,47.90
2022-09-12T00:20:54.692Z,48.00
2022-09-12T00:23:24.811Z,47.70
2022-09-12T00:25:55.278Z,47.40
2022-09-12T00:28:25.321Z,47.40
2022-09-12T00:30:56.272Z,47.10
2022-09-12T00:33:27.052Z,46.90
2022-09-12T00:35:57.454Z,46.90
2022-09-12T00:38:27.608Z,46.70
2022-09-12T00:40:58.218Z,46.60
2022-09-12T00:43:37.508Z,46.60
2022-09-12T00:46:19.909Z,46.40
2022-09-12T00:48:57.385Z,46.40
2022-09-12T00:51:27.908Z,46.50
2022-09-12T00:53:58.274Z,46.70
2022-09-12T00:56:28.387Z,46.60
2022-09-12T00:59:11.902Z,47.00
2022-09-12T01:01:42.380Z,46.90
2022-09-12T01:04:12.548Z,46.90
2022-09-12T01:06:44.450Z,47.00
2022-09-12T01:09:16.894Z,46.80
2022-09-12T01:11:48.320Z,46.80
2022-09-12T01:14:18.791Z,46.80
2022-09-12T01:16:49.625Z,47.60
2022-09-12T01:19:47.486Z,47.40
2022-09-12T01:22:26.328Z,47.10
2022-09-12T01:25:03.851Z,46.90
2022-09-12T01:27:52.337Z,46.70
2022-09-12T01:30:22.276Z,46.80
2022-09-12T01:33:14.316Z,46.80
2022-09-12T01:36:06.679Z,46.70
2022-09-12T01:38:45.652Z,46.80
2022-09-12T01:41:32.666Z,46.80
2022-09-12T01:44:04.406Z,46.80
2022-09-12T01:46:40.416Z,46.90
2022-09-12T01:49:16.769Z,46.90
2022-09-12T01:51:53.570Z,47.00
2022-09-12T01:54:29.432Z,47.50
2022-09-12T01:57:00.412Z,47.00
2022-09-12T01:59:37.845Z,47.10
2022-09-12T02:02:11.015Z,47.10
2022-09-12T02:04:49.005Z,47.10
2022-09-12T02:07:25.369Z,47.20
2022-09-12T02:10:17.838Z,47.20
2022-09-12T02:12:51.439Z,47.30
2022-09-12T02:15:22.740Z,47.30
2022-09-12T02:17:53.292Z,47.40
2022-09-12T02:20:46.883Z,47.40
2022-09-12T02:23:23.554Z,47.40
2022-09-12T02:25:56.541Z,47.40
2022-09-12T02:28:31.684Z,47.50
2022-09-12T02:31:55.239Z,47.50
2022-09-12T02:34:45.523Z,47.50
2022-09-12T02:37:44.307Z,47.60
2022-09-12T02:40:14.848Z,47.60
2022-09-12T02:42:44.814Z,47.60
2022-09-12T02:45:14.825Z,47.60
2022-09-12T02:48:09.134Z,47.60
2022-09-12T02:50:39.147Z,47.60
2022-09-12T02:53:09.757Z,47.70
2022-09-12T02:55:40.328Z,47.70
2022-09-12T02:58:12.924Z,47.70
2022-09-12T03:00:53.555Z,47.70
2022-09-12T03:03:43.552Z,47.80
2022-09-12T03:06:36.692Z,47.80
2022-09-12T03:09:19.779Z,47.80
2022-09-12T03:12:20.376Z,47.80
2022-09-12T03:14:54.254Z,47.80
2022-09-12T03:17:41.531Z,47.90
2022-09-12T03:20:35.635Z,47.90
2022-09-12T03:23:07.721Z,47.90
2022-09-12T03:25:42.300Z,48.00
2022-09-12T03:28:14.753Z,47.90
2022-09-12T03:30:48.941Z,47.90
2022-09-12T03:33:23.882Z,47.90
2022-09-12T03:35:54.248Z,48.00
2022-09-12T03:38:24.278Z,48.00
2022-09-12T03:40:55.067Z,48.00
2022-09-12T03:43:27.270Z,48.00
2022-09-12T03:45:57.580Z,47.90
2022-09-12T03:48:27.574Z,48.00
2022-09-12T03:50:57.533Z,48.00
2022-09-12T03:53:27.627Z,48.00
2022-09-12T03:55:57.851Z,48.00
2022-09-12T03:58:31.184Z,48.00
2022-09-12T04:01:01.199Z,48.10
2022-09-12T04:03:31.122Z,48.00
2022-09-12T04:06:01.094Z,48.10
2022-09-12T04:08:30.990Z,48.00
2022-09-12T04:11:11.990Z,48.00
2022-09-12T04:13:42.999Z,48.10
2022-09-12T04:16:13.564Z,48.00
2022-09-12T04:18:43.573Z,48.10
2022-09-12T04:21:16.026Z,48.10
2022-09-12T04:23:46.267Z,48.10
2022-09-12T04:26:16.533Z,48.10
2022-09-12T04:28:47.631Z,48.10
2022-09-12T04:31:19.764Z,48.10
2022-09-12T04:33:50.278Z,48.20
2022-09-12T04:36:20.388Z,48.20
2022-09-12T04:38:50.966Z,48.20
2022-09-12T04:41:29.775Z,48.20
2022-09-12T04:44:05.393Z,48.20
2022-09-12T04:46:40.069Z,48.30
2022-09-12T04:49:10.170Z,48.40
2022-09-12T04:51:41.963Z,48.40
2022-09-12T04:54:16.767Z,48.50
2022-09-12T04:56:48.816Z,48.50
2022-09-12T04:59:22.672Z,48.60
2022-09-12T05:01:52.981Z,48.60
2022-09-12T05:04:23.229Z,48.60
2022-09-12T05:06:53.647Z,48.70
2022-09-12T05:09:23.574Z,48.70
2022-09-12T05:12:05.007Z,48.70
2022-09-12T05:14:36.028Z,48.70
2022-09-12T05:17:07.166Z,48.80
2022-09-12T05:19:38.101Z,48.40
2022-09-12T05:22:08.136Z,48.90
2022-09-12T05:24:40.832Z,48.90
2022-09-12T05:27:11.809Z,48.90
2022-09-12T05:29:41.892Z,48.90
2022-09-12T05:32:13.701Z,49.00
2022-09-12T05:34:43.865Z,49.10
2022-09-12T05:37:14.272Z,49.10
2022-09-12T05:39:44.544Z,49.10
2022-09-12T05:42:15.531Z,49.10
2022-09-12T05:44:45.497Z,49.20
2022-09-12T05:47:15.461Z,49.20
2022-09-12T05:49:46.387Z,49.70
2022-09-12T05:52:16.352Z,49.20
2022-09-12T05:54:46.703Z,49.20
2022-09-12T05:57:16.737Z,49.30
2022-09-12T05:59:47.159Z,49.40
2022-09-12T06:02:17.256Z,49.40
2022-09-12T06:04:47.803Z,49.30
2022-09-12T06:07:17.728Z,49.40
2022-09-12T06:09:47.657Z,49.40
2022-09-12T06:12:18.073Z,49.30
2022-09-12T06:14:48.900Z,49.30
2022-09-12T06:17:20.002Z,49.40
2022-09-12T06:19:52.941Z,49.40
2022-09-12T06:22:23.001Z,49.40
2022-09-12T06:24:57.777Z,49.40
2022-09-12T06:27:27.971Z,49.40
2022-09-12T06:29:57.990Z,49.50
2022-09-12T06:32:28.001Z,49.60
2022-09-12T06:34:58.839Z,49.50
2022-09-12T06:37:29.748Z,49.60
2022-09-12T06:40:00.032Z,49.70
2022-09-12T06:42:30.129Z,49.70
2022-09-12T06:45:01.368Z,49.70
2022-09-12T06:47:31.453Z,49.80
2022-09-12T06:50:01.435Z,49.80
2022-09-12T06:52:31.348Z,49.80
2022-09-12T06:55:01.547Z,49.90
2022-09-12T06:57:32.794Z,49.70
2022-09-12T07:00:03.291Z,50.00
2022-09-12T07:02:33.354Z,50.00
2022-09-12T07:05:03.758Z,50.00
2022-09-12T07:07:35.518Z,50.00
2022-09-12T07:10:05.812Z,50.10
2022-09-12T07:12:36.097Z,50.10
2022-09-12T07:15:06.434Z,50.20
2022-09-12T07:17:36.377Z,50.20
2022-09-12T07:20:06.736Z,50.10
2022-09-12T07:22:36.634Z,50.10
2022-09-12T07:25:07.291Z,50.10
2022-09-12T07:27:39.730Z,50.20
2022-09-12T07:30:10.006Z,50.20
2022-09-12T07:32:40.053Z,50.10
2022-09-12T07:35:11.200Z,50.20
2022-09-12T07:37:41.186Z,50.40
2022-09-12T07:40:11.690Z,50.20
2022-09-12T07:42:41.796Z,50.40
2022-09-12T07:45:12.463Z,50.20
2022-09-12T07:47:42.549Z,50.30
2022-09-12T07:50:12.653Z,50.20
2022-09-12T07:52:42.567Z,50.20
2022-09-12T07:55:12.465Z,50.20
2022-09-12T07:57:42.349Z,50.20
2022-09-12T08:00:12.767Z,50.20
2022-09-12T08:02:42.567Z,50.20
2022-09-12T08:05:12.705Z,50.20
2022-09-12T08:07:44.638Z,50.20
2022-09-12T08:10:14.613Z,50.20
2022-09-12T08:12:44.638Z,50.20
2022-09-12T08:15:14.777Z,50.20
2022-09-12T08:17:44.711Z,50.20
2022-09-12T08:20:15.039Z,50.20
2022-09-12T08:22:45.574Z,50.20
2022-09-12T08:25:15.551Z,50.20
2022-09-12T08:27:46.230Z,50.10
2022-09-12T08:30:16.462Z,50.20
2022-09-12T08:32:46.556Z,50.10
2022-09-12T08:35:16.729Z,50.20
2022-09-12T08:37:46.690Z,50.20
2022-09-12T08:40:17.751Z,50.20
2022-09-12T08:43:07.849Z,50.40
2022-09-12T08:45:53.149Z,50.40
2022-09-12T08:48:23.151Z,50.30
2022-09-12T08:50:53.131Z,50.40
2022-09-12T08:53:24.413Z,50.50
2022-09-12T08:56:01.134Z,50.50
2022-09-12T08:58:31.369Z,50.50
2022-09-12T09:01:08.448Z,51.00
2022-09-12T09:03:59.720Z,50.60
2022-09-12T09:06:41.403Z,50.60
2022-09-12T09:09:20.372Z,50.60
2022-09-12T09:12:21.401Z,50.70
2022-09-12T09:14:58.445Z,50.70
2022-09-12T09:17:39.700Z,50.80
2022-09-12T09:21:00.816Z,50.80
2022-09-12T09:23:33.014Z,50.80
2022-09-12T09:26:27.815Z,50.90
2022-09-12T09:29:05.114Z,50.90
2022-09-12T09:31:41.014Z,50.90
2022-09-12T09:34:24.495Z,51.00
2022-09-12T09:37:18.268Z,50.90
2022-09-12T09:39:54.323Z,50.80
2022-09-12T09:42:24.363Z,51.00
2022-09-12T09:44:55.852Z,51.00
2022-09-12T09:47:25.953Z,51.50
2022-09-12T09:49:56.006Z,51.00
2022-09-12T09:52:30.778Z,51.00
2022-09-12T09:55:02.939Z,51.00
2022-09-12T09:57:43.978Z,51.00
2022-09-12T10:00:37.427Z,51.10
2022-09-12T10:03:16.156Z,50.90
2022-09-12T10:05:56.665Z,50.80
2022-09-12T10:08:37.278Z,50.80
2022-09-12T10:11:28.162Z,50.90
2022-09-12T10:13:59.516Z,50.80
2022-09-12T10:16:37.170Z,50.80
2022-09-12T10:19:07.297Z,50.80
2022-09-12T10:21:39.346Z,50.90
2022-09-12T10:24:29.815Z,50.80
2022-09-12T10:27:15.210Z,50.90
2022-09-12T10:30:05.436Z,50.90
2022-09-12T10:32:43.190Z,51.00
2022-09-12T10:35:27.376Z,51.00
2022-09-12T10:38:07.663Z,51.00
2022-09-12T10:40:41.290Z,51.00
2022-09-12T10:43:41.210Z,51.00
2022-09-12T10:46:17.405Z,51.10
2022-09-12T10:49:24.609Z,51.10
2022-09-12T10:51:55.563Z,51.20
2022-09-12T10:54:30.542Z,51.20
2022-09-12T10:57:19.240Z,51.20
2022-09-12T11:00:21.619Z,51.20
2022-09-12T11:03:26.279Z,51.20
2022-09-12T11:05:59.420Z,51.20
2022-09-12T11:08:38.836Z,51.30
2022-09-12T11:11:36.588Z,51.20
2022-09-12T11:14:52.753Z,51.30
2022-09-12T11:17:26.050Z,51.30
2022-09-12T11:20:34.315Z,51.40
2022-09-12T11:23:22.343Z,51.30
2022-09-12T11:26:01.323Z,51.40
2022-09-12T11:28:54.052Z,51.40
2022-09-12T11:31:45.417Z,51.40
2022-09-12T11:34:18.364Z,51.40
2022-09-12T11:37:23.684Z,51.40
2022-09-12T11:39:55.811Z,51.50
2022-09-12T11:42:45.407Z,51.50
2022-09-12T11:45:16.128Z,51.40
2022-09-12T11:47:51.379Z,51.40
2022-09-12T11:50:31.774Z,51.60
2022-09-12T11:53:14.668Z,51.50
2022-09-12T11:56:10.589Z,51.50
2022-09-12T11:58:40.533Z,51.50
2022-09-12T12:01:17.249Z,51.50
2022-09-12T12:03:48.384Z,51.50
2022-09-12T12:06:20.434Z,51.50
2022-09-12T12:08:51.609Z,51.50
2022-09-12T12:11:35.567Z,51.60
2022-09-12T12:14:23.214Z,51.60
2022-09-12T12:16:53.668Z,51.50
2022-09-12T12:19:27.482Z,51.60
2022-09-12T12:21:57.402Z,52.10
2022-09-12T12:24:29.947Z,51.60
2022-09-12T12:27:49.074Z,51.60
2022-09-12T12:30:34.882Z,51.60
2022-09-12T12:33:12.024Z,51.60
2022-09-12T12:35:44.945Z,51.60
2022-09-12T12:38:36.238Z,51.60
2022-09-12T12:41:21.626Z,51.60
2022-09-12T12:43:57.425Z,52.10
2022-09-12T12:46:30.732Z,51.60
2022-09-12T12:49:28.661Z,51.60
2022-09-12T12:52:02.451Z,51.70
2022-09-12T12:54:42.565Z,51.60
2022-09-12T12:57:25.036Z,51.60
2022-09-12T13:00:31.187Z,51.60
2022-09-12T13:03:09.996Z,51.60
2022-09-12T13:05:53.186Z,51.60
2022-09-12T13:08:36.072Z,51.60
2022-09-12T13:11:13.661Z,51.60
2022-09-12T13:13:54.097Z,51.60
2022-09-12T13:16:33.234Z,51.60
2022-09-12T13:19:18.008Z,51.60
2022-09-12T13:22:09.536Z,51.60
2022-09-12T13:24:50.276Z,51.60
2022-09-12T13:27:22.478Z,51.60
2022-09-12T13:30:08.087Z,51.60
2022-09-12T13:32:38.145Z,51.60
2022-09-12T13:35:24.413Z,51.70
2022-09-12T13:38:24.174Z,51.70
2022-09-12T13:41:03.453Z,51.60
2022-09-12T13:43:42.382Z,51.70
2022-09-12T13:46:14.404Z,51.70
2022-09-12T13:48:44.372Z,51.70
2022-09-12T13:51:26.281Z,51.70
2022-09-12T13:53:57.579Z,51.70
2022-09-12T13:56:27.665Z,51.70
2022-09-12T13:58:59.083Z,51.70
2022-09-12T14:01:42.685Z,51.80
2022-09-12T14:04:34.741Z,52.70
2022-09-12T14:07:12.594Z,52.40
2022-09-12T14:09:46.791Z,52.60
2022-09-12T14:12:38.250Z,52.60
2022-09-12T14:15:10.784Z,52.60
2022-09-12T14:17:41.193Z,52.60
2022-09-12T14:20:20.287Z,52.70
2022-09-12T14:22:51.291Z,52.80
2022-09-12T14:25:26.240Z,52.60
2022-09-12T14:27:57.121Z,52.60
2022-09-12T14:30:37.809Z,54.00
2022-09-12T14:33:13.923Z,54.70
2022-09-12T14:35:48.038Z,54.80
2022-09-12T14:38:18.110Z,55.80
2022-09-12T14:40:53.399Z,56.00
2022-09-12T14:43:27.051Z,56.30
2022-09-12T14:46:01.149Z,56.40
2022-09-12T14:48:33.813Z,56.60
2022-09-12T14:51:03.993Z,57.20
2022-09-12T14:53:35.051Z,57.20
2022-09-12T14:56:13.143Z,57.20
2022-09-12T14:58:43.381Z,57.30
2022-09-12T15:01:14.162Z,57.20
2022-09-12T15:03:49.500Z,57.30
2022-09-12T15:06:31.112Z,57.30
2022-09-12T15:09:13.596Z,57.30
2022-09-12T15:11:43.746Z,57.30
2022-09-12T15:14:16.945Z,57.30
2022-09-12T15:16:49.899Z,57.30
2022-09-12T15:19:20.204Z,57.40
2022-09-12T15:21:50.227Z,57.40
2022-09-12T15:24:20.282Z,57.40
2022-09-12T15:26:50.446Z,57.40
2022-09-12T15:29:21.077Z,57.40
2022-09-12T15:31:51.126Z,57.60
2022-09-12T15:34:21.318Z,57.50
2022-09-12T15:36:51.324Z,57.20
2022-09-12T15:39:21.333Z,54.10
2022-09-12T15:41:51.643Z,52.60
2022-09-12T15:44:22.546Z,55.00
2022-09-12T15:46:52.608Z,52.20
2022-09-12T15:49:22.614Z,53.10
2022-09-12T15:51:55.503Z,52.80
2022-09-12T15:54:25.608Z,52.60
2022-09-12T15:56:56.161Z,53.70
2022-09-12T15:59:26.362Z,53.00
2022-09-12T16:01:56.453Z,50.40
2022-09-12T16:04:28.075Z,48.20
2022-09-12T16:06:58.470Z,48.20
2022-09-12T16:09:28.964Z,50.50
2022-09-12T16:11:59.008Z,49.50
2022-09-12T16:14:29.015Z,49.20
2022-09-12T16:16:59.562Z,50.60
2022-09-12T16:19:29.533Z,50.00
2022-09-12T16:21:59.562Z,50.40
2022-09-12T16:24:30.472Z,49.90
2022-09-12T16:27:01.485Z,50.50
2022-09-12T16:29:31.688Z,51.10
2022-09-12T16:32:02.041Z,50.80
2022-09-12T16:34:32.163Z,48.40
2022-09-12T16:37:02.996Z,50.30
2022-09-12T16:39:32.911Z,50.00
2022-09-12T16:42:02.888Z,48.70
2022-09-12T16:44:33.003Z,49.40
2022-09-12T16:47:02.989Z,49.00
2022-09-12T16:49:33.034Z,49.30
2022-09-12T16:52:03.242Z,47.70
2022-09-12T16:54:33.300Z,48.00
2022-09-12T16:57:06.329Z,48.20
2022-09-12T16:59:36.510Z,47.60
2022-09-12T17:02:07.423Z,47.00
2022-09-12T17:04:37.668Z,47.20
2022-09-12T17:07:07.704Z,46.80
2022-09-12T17:09:37.823Z,44.50
2022-09-12T17:12:07.927Z,46.00
2022-09-12T17:14:37.809Z,46.70
2022-09-12T17:17:08.463Z,46.80
2022-09-12T17:19:38.476Z,46.70
2022-09-12T17:22:08.397Z,47.00
2022-09-12T17:24:38.344Z,45.90
2022-09-12T17:27:08.294Z,45.80
2022-09-12T17:29:39.739Z,46.00
2022-09-12T17:32:09.769Z,45.40
2022-09-12T17:34:39.654Z,45.90
2022-09-12T17:37:09.717Z,46.10
2022-09-12T17:39:39.759Z,45.60
2022-09-12T17:42:09.846Z,44.50
2022-09-12T17:44:39.891Z,44.60
2022-09-12T17:47:10.001Z,44.70
2022-09-12T17:49:40.648Z,44.30
2022-09-12T17:52:10.624Z,41.70
2022-09-12T17:54:40.990Z,43.40
2022-09-12T17:57:10.917Z,43.90
2022-09-12T17:59:40.840Z,44.10
2022-09-12T18:02:14.525Z,43.70
2022-09-12T18:04:49.588Z,43.80
2022-09-12T18:07:20.564Z,43.50
2022-09-12T18:09:51.747Z,43.90
2022-09-12T18:12:21.912Z,42.70
2022-09-12T18:14:52.148Z,42.90
2022-09-12T18:17:23.046Z,43.80
2022-09-12T18:19:55.022Z,44.30
2022-09-12T18:22:25.070Z,44.20
2022-09-12T18:24:55.154Z,44.00
2022-09-12T18:27:25.105Z,44.00
2022-09-12T18:30:19.569Z,43.80
2022-09-12T18:32:45.498Z,43.50
2022-09-12T18:35:15.692Z,43.00
2022-09-12T18:37:46.072Z,43.10
2022-09-12T18:40:16.073Z,42.40
2022-09-12T18:42:46.093Z,42.50
2022-09-12T18:45:16.135Z,43.10
2022-09-12T18:47:46.147Z,43.40
2022-09-12T18:50:16.125Z,43.30
2022-09-12T18:52:46.087Z,43.60
2022-09-12T18:55:16.173Z,43.60
2022-09-12T18:57:46.225Z,42.60
2022-09-12T19:00:16.626Z,42.30
2022-09-12T19:02:46.615Z,41.80
2022-09-12T19:05:17.193Z,42.50
2022-09-12T19:07:50.093Z,41.70
2022-09-12T19:10:20.844Z,40.60
2022-09-12T19:12:50.768Z,41.20
2022-09-12T19:15:20.758Z,40.00
2022-09-12T19:17:50.827Z,38.50
2022-09-12T19:20:20.927Z,38.50
2022-09-12T19:22:50.905Z,40.00
2022-09-12T19:25:20.838Z,40.10
2022-09-12T19:27:50.803Z,39.30
2022-09-12T19:30:20.717Z,40.60
2022-09-12T19:32:50.722Z,40.00
2022-09-12T19:35:20.693Z,40.40
2022-09-12T19:37:50.953Z,39.20
2022-09-12T19:40:21.067Z,40.40
2022-09-12T19:42:51.064Z,40.40
2022-09-12T19:45:21.142Z,39.60
2022-09-12T19:47:51.162Z,40.10
2022-09-12T19:50:24.035Z,40.70
2022-09-12T19:52:54.130Z,40.30
2022-09-12T19:55:24.152Z,40.20
2022-09-12T19:57:55.045Z,40.60
2022-09-12T20:00:25.035Z,40.50
2022-09-12T20:02:55.345Z,39.70
2022-09-12T20:05:25.426Z,40.10
2022-09-12T20:07:55.568Z,39.80
2022-09-12T20:10:25.883Z,39.70
2022-09-12T20:12:55.839Z,40.20
2022-09-12T20:15:25.955Z,39.90
2022-09-12T20:17:57.492Z,40.60
2022-09-12T20:20:27.890Z,40.50
2022-09-12T20:22:57.862Z,40.30
2022-09-12T20:25:27.961Z,40.70
2022-09-12T20:28:00.153Z,41.30
2022-09-12T20:30:30.465Z,40.90
2022-09-12T20:33:00.867Z,40.20
2022-09-12T20:35:30.782Z,40.20
2022-09-12T20:38:00.951Z,39.50
2022-09-12T20:40:30.961Z,40.80
2022-09-12T20:43:00.979Z,39.80
2022-09-12T20:45:31.000Z,40.20
2022-09-12T20:48:00.964Z,40.70
2022-09-12T20:50:30.863Z,40.40
2022-09-12T20:53:02.651Z,40.70
2022-09-12T20:55:32.635Z,39.80
2022-09-12T20:58:02.524Z,39.50
2022-09-12T21:00:33.149Z,39.80
2022-09-12T21:03:04.112Z,39.10
2022-09-12T21:05:34.434Z,39.30
2022-09-12T21:08:04.452Z,39.10
2022-09-12T21:10:35.457Z,39.20
2022-09-12T21:13:05.663Z,40.80
2022-09-12T21:15:35.623Z,40.50
2022-09-12T21:18:05.599Z,40.60
2022-09-12T21:20:36.419Z,40.10
2022-09-12T21:23:06.492Z,40.60
2022-09-12T21:25:36.420Z,40.40
2022-09-12T21:28:06.349Z,40.60
2022-09-12T21:30:36.294Z,40.00
2022-09-12T21:33:06.672Z,39.70
2022-09-12T21:35:36.907Z,38.00
2022-09-12T21:38:07.080Z,39.30
2022-09-12T21:40:37.397Z,39.00
2022-09-12T21:43:12.362Z,39.20
2022-09-12T21:45:43.537Z,38.60
2022-09-12T21:48:13.467Z,39.70
2022-09-12T21:50:43.999Z,39.40
2022-09-12T21:53:14.438Z,39.80
2022-09-12T21:55:44.372Z,39.30
2022-09-12T21:58:14.262Z,39.30
2022-09-12T22:00:45.115Z,38.20
2022-09-12T22:03:16.625Z,38.20
2022-09-12T22:05:47.141Z,37.60
2022-09-12T22:08:17.113Z,38.10
2022-09-12T22:10:48.449Z,38.50
2022-09-12T22:13:18.879Z,38.10
2022-09-12T22:15:53.138Z,37.80
2022-09-12T22:18:23.454Z,37.80
2022-09-12T22:21:01.775Z,38.10
2022-09-12T22:23:50.433Z,37.70
2022-09-12T22:26:20.491Z,37.70
2022-09-12T22:28:51.523Z,38.00
2022-09-12T22:31:22.698Z,38.60
2022-09-12T22:33:52.936Z,38.00
2022-09-12T22:36:22.893Z,38.50
2022-09-12T22:38:52.861Z,38.80
2022-09-12T22:41:23.605Z,39.00
2022-09-12T22:43:54.147Z,39.10
2022-09-12T22:46:25.256Z,38.60
2022-09-12T22:48:56.877Z,39.10
2022-09-12T22:51:28.216Z,39.00
2022-09-12T22:53:58.511Z,39.00
2022-09-12T22:56:28.532Z,39.90
2022-09-12T22:58:59.075Z,40.10
2022-09-12T23:01:31.078Z,40.00
2022-09-12T23:04:02.372Z,39.70
2022-09-12T23:06:33.032Z,39.10
2022-09-12T23:09:02.978Z,38.20
2022-09-12T23:11:33.900Z,38.30
2022-09-12T23:14:04.954Z,39.90
2022-09-12T23:16:35.266Z,39.50
2022-09-12T23:19:05.365Z,39.40
2022-09-12T23:21:36.099Z,38.90
2022-09-12T23:24:08.631Z,38.60
2022-09-12T23:26:38.850Z,38.60
2022-09-12T23:29:08.922Z,39.40
2022-09-12T23:31:39.362Z,39.50
2022-09-12T23:34:10.432Z,39.10
2022-09-12T23:36:40.745Z,39.90
2022-09-12T23:39:11.485Z,40.20
2022-09-12T23:41:42.509Z,40.10
2022-09-12T23:44:12.696Z,40.20
2022-09-12T23:46:42.795Z,40.20
2022-09-12T23:49:13.005Z,40.30
2022-09-12T23:51:43.761Z,40.10
2022-09-12T23:54:13.740Z,40.00
2022-09-12T23:56:43.981Z,39.70
2022-09-12T23:59:14.669Z,40.10
